Time;durP1;ratioP1;P1;durP2;ratioP2;P2;SDS_P1;SDS_P2;PMS_P1;PMS_P2;Temp;Humidity;BMP_temperature;BMP_pressure;BME280_temperature;BME280_humidity;BME280_pressure;Samples;Min_cycle;Max_cycle;Signal;HPM_P1;HPM_P2
2022/04/16 00:01:37;;;;;;;2.95;2.63;;;9.20;99.90;;;;;;4974095;28;20449;-76
2022/04/16 00:04:04;;;;;;;3.35;2.60;;;9.10;99.90;;;;;;4956815;28;20113;-76
2022/04/16 00:06:29;;;;;;;3.20;2.90;;;9.10;99.90;;;;;;4973838;28;20761;-76
2022/04/16 00:08:55;;;;;;;2.85;2.53;;;9.00;99.90;;;;;;4940965;28;20030;-76
2022/04/16 00:11:21;;;;;;;3.42;2.80;;;9.00;99.90;;;;;;4956988;28;20023;-76
2022/04/16 00:13:49;;;;;;;3.92;2.53;;;9.00;99.90;;;;;;4956349;28;20039;-76
2022/04/16 00:16:17;;;;;;;3.10;2.80;;;8.90;99.90;;;;;;4956562;28;20035;-76
2022/04/16 00:18:45;;;;;;;3.80;2.85;;;8.80;99.90;;;;;;4973705;28;20467;-76
2022/04/16 00:21:12;;;;;;;2.72;2.20;;;8.90;99.90;;;;;;4973635;28;20076;-75
2022/04/16 00:23:39;;;;;;;2.40;2.20;;;8.70;99.90;;;;;;4973209;28;20073;-79
2022/04/16 00:26:05;;;;;;;4.10;2.22;;;8.70;99.90;;;;;;4973592;28;20109;-76
2022/04/16 00:28:30;;;;;;;2.10;1.92;;;8.70;99.90;;;;;;4973603;28;20495;-78
2022/04/16 00:30:57;;;;;;;3.05;2.30;;;9.00;99.90;;;;;;4973998;28;20027;-76
2022/04/16 00:33:25;;;;;;;3.22;2.53;;;8.70;99.90;;;;;;4974367;28;20015;-76
2022/04/16 00:35:51;;;;;;;3.13;2.83;;;8.60;99.90;;;;;;4974283;28;20546;-76
2022/04/16 00:38:17;;;;;;;3.60;2.72;;;8.60;99.90;;;;;;4974462;28;20061;-76
2022/04/16 00:40:43;;;;;;;2.72;2.38;;;8.70;99.90;;;;;;4974069;28;20022;-76
2022/04/16 00:43:23;;;;;;;2.72;2.35;;;8.40;99.90;;;;;;4973948;28;20031;-76
2022/04/16 00:45:49;;;;;;;2.83;2.53;;;8.40;99.90;;;;;;4974050;28;20019;-76
2022/04/16 00:48:14;;;;;;;2.80;2.58;;;8.40;99.90;;;;;;4973982;28;20363;-76
2022/04/16 00:50:41;;;;;;;3.38;2.75;;;8.30;99.90;;;;;;4974209;28;20019;-76
2022/04/16 00:53:07;;;;;;;2.50;2.30;;;8.30;99.90;;;;;;4956703;28;20038;-76
2022/04/16 00:55:37;;;;;;;3.42;3.13;;;8.30;99.90;;;;;;4973570;28;20077;-76
2022/04/16 00:58:02;;;;;;;3.25;2.53;;;8.20;99.90;;;;;;4974024;28;20050;-75
2022/04/16 01:00:28;;;;;;;2.90;2.28;;;8.20;99.90;;;;;;4973650;28;20125;-76
2022/04/16 01:02:56;;;;;;;3.70;2.50;;;8.20;99.90;;;;;;4973425;28;20027;-76
2022/04/16 01:05:22;;;;;;;1.55;1.40;;;8.20;99.90;;;;;;4956128;28;20023;-75
2022/04/16 01:07:57;;;;;;;1.65;1.55;;;8.10;99.90;;;;;;4973715;28;20030;-75
2022/04/16 01:10:26;;;;;;;1.70;1.60;;;8.10;99.90;;;;;;4973921;28;20541;-75
2022/04/16 01:12:53;;;;;;;1.65;1.55;;;8.10;99.90;;;;;;4956482;28;20019;-76
2022/04/16 01:15:20;;;;;;;1.60;1.50;;;8.10;99.90;;;;;;4956498;28;20510;-76
2022/04/16 01:17:50;;;;;;;1.60;1.50;;;8.20;99.90;;;;;;4956274;28;20462;-76
2022/04/16 01:20:16;;;;;;;1.58;1.48;;;8.30;99.90;;;;;;4956567;28;20022;-75
2022/04/16 01:22:46;;;;;;;1.30;1.20;;;8.20;99.90;;;;;;4973726;28;20480;-76
2022/04/16 01:25:12;;;;;;;1.60;1.50;;;8.20;99.90;;;;;;4973570;28;20035;-76
2022/04/16 01:27:43;;;;;;;1.55;1.45;;;8.20;99.90;;;;;;4956387;28;20078;-76
2022/04/16 01:30:14;;;;;;;1.45;1.35;;;8.30;99.90;;;;;;4973844;28;20019;-76
2022/04/16 01:32:43;;;;;;;2.25;1.70;;;7.80;99.90;;;;;;4973984;28;20041;-76
2022/04/16 01:35:10;;;;;;;1.45;1.35;;;8.20;99.90;;;;;;4977639;28;20873;-75
2022/04/16 01:37:35;;;;;;;1.42;1.33;;;8.20;99.90;;;;;;4977864;28;20034;-76
2022/04/16 01:40:07;;;;;;;1.52;1.42;;;8.30;99.90;;;;;;4960240;28;20023;-76
2022/04/16 01:42:33;;;;;;;1.48;1.25;;;8.30;99.90;;;;;;4965910;28;20018;-75
2022/04/16 01:45:02;;;;;;;1.30;1.20;;;8.40;99.90;;;;;;4983866;28;20019;-78
2022/04/16 01:47:28;;;;;;;1.55;1.30;;;8.40;99.90;;;;;;4980613;28;20470;-76
2022/04/16 01:49:55;;;;;;;1.38;0.88;;;8.50;99.90;;;;;;4980259;28;20023;-76
2022/04/16 01:52:24;;;;;;;1.67;1.58;;;8.40;99.90;;;;;;4979624;28;20031;-76
2022/04/16 01:54:50;;;;;;;1.52;1.42;;;8.40;99.90;;;;;;4978667;28;20106;-76
2022/04/16 01:57:19;;;;;;;2.47;1.67;;;8.50;99.90;;;;;;4960861;28;20348;-76
2022/04/16 01:59:46;;;;;;;1.35;1.25;;;8.50;99.90;;;;;;4978337;28;20061;-76
2022/04/16 02:02:13;;;;;;;1.20;1.20;;;8.50;99.90;;;;;;4978103;28;20080;-75
2022/04/16 02:04:38;;;;;;;1.27;1.20;;;8.70;99.90;;;;;;4978108;28;20410;-75
2022/04/16 02:07:04;;;;;;;1.52;1.33;;;8.70;99.90;;;;;;4977489;28;20034;-76
2022/04/16 02:09:31;;;;;;;1.67;1.50;;;8.70;99.90;;;;;;4977631;28;20074;-75
2022/04/16 02:11:57;;;;;;;3.33;1.20;;;8.80;99.90;;;;;;4977504;28;20035;-75
2022/04/16 02:14:23;;;;;;;1.48;1.38;;;8.90;99.90;;;;;;4976729;28;20517;-76
2022/04/16 02:16:49;;;;;;;1.50;1.40;;;9.00;99.90;;;;;;4977056;28;20545;-76
2022/04/16 02:19:17;;;;;;;2.45;1.77;;;9.00;99.90;;;;;;4976870;28;20027;-75
2022/04/16 02:21:43;;;;;;;1.30;1.20;;;9.00;99.90;;;;;;4976850;28;20077;-76
2022/04/16 02:24:10;;;;;;;1.73;1.38;;;9.00;99.90;;;;;;4976819;28;20029;-76
2022/04/16 02:26:37;;;;;;;1.05;1.05;;;9.00;99.90;;;;;;4959269;28;20027;-76
2022/04/16 02:29:04;;;;;;;1.17;1.08;;;9.00;99.90;;;;;;4959389;28;20031;-76
2022/04/16 02:31:29;;;;;;;1.30;1.20;;;9.00;99.90;;;;;;4959096;28;20023;-75
2022/04/16 02:33:55;;;;;;;2.95;1.02;;;9.00;99.90;;;;;;4976347;28;20034;-75
2022/04/16 02:36:25;;;;;;;1.42;1.33;;;8.90;99.90;;;;;;4976258;28;20529;-75
2022/04/16 02:38:52;;;;;;;2.50;1.83;;;8.90;99.90;;;;;;4976429;28;20034;-76
2022/04/16 02:41:19;;;;;;;1.50;1.40;;;9.00;99.90;;;;;;4976117;28;20046;-76
2022/04/16 02:43:44;;;;;;;1.30;1.20;;;8.90;99.90;;;;;;4976159;28;20030;-75
2022/04/16 02:48:54;;;;;;;1.30;1.20;;;8.70;99.90;;;;;;4976303;28;20470;-75
2022/04/16 02:51:20;;;;;;;1.38;1.17;;;8.70;99.90;;;;;;4976174;28;20026;-76
2022/04/16 02:53:46;;;;;;;1.10;1.10;;;8.50;99.90;;;;;;4958513;28;20034;-76
2022/04/16 02:56:11;;;;;;;1.10;1.10;;;8.40;99.90;;;;;;4958430;28;20062;-76
2022/04/16 02:58:37;;;;;;;1.42;1.30;;;8.60;99.90;;;;;;4975763;28;20023;-75
2022/04/16 03:01:05;;;;;;;2.30;1.17;;;8.10;99.90;;;;;;4975604;28;20030;-76
2022/04/16 03:03:31;;;;;;;1.10;1.00;;;7.90;99.90;;;;;;4975835;28;20107;-75
2022/04/16 03:05:56;;;;;;;2.17;1.52;;;7.70;99.90;;;;;;4958651;28;20026;-75
2022/04/16 03:08:24;;;;;;;1.17;1.08;;;7.60;99.90;;;;;;4975641;28;20102;-76
2022/04/16 03:10:54;;;;;;;1.00;1.00;;;7.40;99.90;;;;;;4975625;28;20034;-76
2022/04/16 03:13:20;;;;;;;3.75;1.20;;;7.40;99.90;;;;;;4975177;28;20051;-76
2022/04/16 03:18:30;;;;;;;1.17;1.02;;;7.30;99.90;;;;;;4975625;28;20038;-75
2022/04/16 03:20:57;;;;;;;2.20;1.48;;;7.10;99.90;;;;;;4975151;28;20015;-76
2022/04/16 03:23:23;;;;;;;1.50;1.40;;;7.30;99.90;;;;;;4975320;28;20027;-76
2022/04/16 03:25:49;;;;;;;1.38;1.27;;;7.20;99.90;;;;;;4975059;28;20573;-76
2022/04/16 03:28:17;;;;;;;1.50;1.30;;;6.60;99.90;;;;;;4975200;28;20038;-75
2022/04/16 03:30:43;;;;;;;3.55;1.80;;;6.60;99.90;;;;;;4975312;28;20074;-76
2022/04/16 03:33:08;;;;;;;2.10;1.55;;;6.70;99.90;;;;;;4975168;28;20027;-76
2022/04/16 03:35:35;;;;;;;1.58;1.48;;;6.70;99.90;;;;;;4974857;28;20376;-76
2022/04/16 03:38:01;;;;;;;1.70;1.60;;;6.70;99.90;;;;;;4975334;28;20065;-76
2022/04/16 03:40:27;;;;;;;1.90;1.67;;;6.60;99.90;;;;;;4975377;28;20110;-76
2022/04/16 03:42:56;;;;;;;2.42;2.00;;;6.60;99.90;;;;;;4957028;28;20031;-76
2022/04/16 03:45:25;;;;;;;1.77;1.65;;;6.60;99.90;;;;;;4974617;28;20145;-76
2022/04/16 03:47:53;;;;;;;1.52;1.42;;;6.50;99.90;;;;;;4974935;28;20054;-75
2022/04/16 03:50:20;;;;;;;1.60;1.50;;;6.50;99.90;;;;;;4974614;28;20030;-75
2022/04/16 03:52:47;;;;;;;2.05;1.67;;;6.40;99.90;;;;;;4974634;28;20607;-75
2022/04/16 04:00:50;;;;;;;1.50;1.38;;;6.70;99.90;;;;;;4974655;28;20110;-76
2022/04/16 04:03:16;;;;;;;4.18;3.53;;;6.60;99.90;;;;;;4958732;28;20034;-75
2022/04/16 04:05:45;;;;;;;3.20;2.90;;;7.10;99.90;;;;;;4977723;28;20018;-76
2022/04/16 04:08:11;;;;;;;2.65;2.40;;;7.10;99.90;;;;;;4974639;28;20109;-75
2022/04/16 04:10:37;;;;;;;2.58;2.35;;;6.90;99.90;;;;;;4974065;28;20586;-75
2022/04/16 04:13:03;;;;;;;4.40;2.88;;;6.70;99.90;;;;;;4973854;28;20042;-75
2022/04/16 04:15:29;;;;;;;2.13;1.63;;;6.60;99.90;;;;;;4975942;28;20573;-76
2022/04/16 04:17:59;;;;;;;2.83;2.47;;;6.80;99.90;;;;;;4974045;28;20030;-76
2022/04/16 04:20:26;;;;;;;1.95;1.83;;;6.50;99.90;;;;;;4974379;28;20382;-75
2022/04/16 04:22:52;;;;;;;2.35;2.13;;;6.60;99.90;;;;;;4962051;28;20026;-75
2022/04/16 04:25:18;;;;;;;3.72;1.92;;;6.60;99.90;;;;;;4980406;28;20596;-75
2022/04/16 04:27:44;;;;;;;3.65;2.53;;;6.60;99.90;;;;;;4980211;28;20076;-75
2022/04/16 04:30:11;;;;;;;4.70;2.60;;;6.70;99.90;;;;;;4979383;28;20474;-75
2022/04/16 04:32:37;;;;;;;4.43;2.47;;;6.70;99.90;;;;;;4975208;28;20034;-76
2022/04/16 04:35:04;;;;;;;1.60;1.50;;;6.70;99.90;;;;;;4974715;28;20043;-75
2022/04/16 04:37:29;;;;;;;2.40;1.80;;;6.70;99.90;;;;;;4956924;28;20062;-75
2022/04/16 04:39:55;;;;;;;23.67;11.32;;;6.80;99.90;;;;;;4975478;28;20514;-76
2022/04/16 04:42:25;;;;;;;3.95;2.50;;;6.70;99.90;;;;;;4974718;28;20031;-75
2022/04/16 04:44:51;;;;;;;1.70;1.60;;;6.70;99.90;;;;;;4975551;28;20098;-76
2022/04/16 04:47:16;;;;;;;3.45;3.15;;;6.70;99.90;;;;;;4974594;28;20011;-75
2022/04/16 04:49:42;;;;;;;4.38;3.97;;;6.60;99.90;;;;;;4974950;28;20084;-75
2022/04/16 04:52:08;;;;;;;2.90;2.70;;;6.70;99.90;;;;;;4957803;28;20019;-75
2022/04/16 04:54:34;;;;;;;2.78;2.58;;;6.70;99.90;;;;;;4974218;28;20151;-76
2022/04/16 04:56:59;;;;;;;3.70;2.42;;;7.00;99.90;;;;;;4974723;28;20026;-76
2022/04/16 04:59:25;;;;;;;3.78;2.88;;;6.90;99.90;;;;;;4974270;28;20026;-75
2022/04/16 05:01:51;;;;;;;125.85;59.70;;;6.90;99.90;;;;;;4974158;28;20026;-75
2022/04/16 05:04:16;;;;;;;44.22;21.27;;;7.10;99.90;;;;;;4974043;28;20022;-76
2022/04/16 05:06:42;;;;;;;38.70;17.83;;;7.20;99.90;;;;;;4973916;28;20034;-75
2022/04/16 05:09:07;;;;;;;55.67;24.02;;;7.20;99.90;;;;;;4973470;28;20478;-76
2022/04/16 05:11:33;;;;;;;41.75;17.30;;;7.30;99.90;;;;;;4956408;28;20049;-75
2022/04/16 05:13:59;;;;;;;43.70;20.13;;;7.20;99.90;;;;;;4972914;28;20105;-75
2022/04/16 05:16:24;;;;;;;16.02;9.90;;;7.50;99.90;;;;;;4959033;28;20031;-76
2022/04/16 05:18:50;;;;;;;68.55;32.78;;;7.30;99.90;;;;;;4959378;28;20035;-75
2022/04/16 05:21:16;;;;;;;18.42;11.07;;;7.60;99.90;;;;;;4975163;28;20035;-75
2022/04/16 05:23:41;;;;;;;7.55;4.57;;;7.40;99.90;;;;;;4976275;28;20027;-75
2022/04/16 05:26:10;;;;;;;56.78;27.85;;;7.90;99.90;;;;;;4974920;28;20022;-76
2022/04/16 05:28:37;;;;;;;13.77;7.43;;;8.10;99.90;;;;;;4974464;28;20055;-76
2022/04/16 05:31:04;;;;;;;18.98;9.18;;;8.30;99.90;;;;;;4975199;28;20026;-76
2022/04/16 05:36:15;;;;;;;7.93;4.70;;;8.50;99.90;;;;;;4976119;28;20093;-76
2022/04/16 05:38:40;;;;;;;6.53;4.43;;;9.00;99.90;;;;;;4974550;28;20026;-76
2022/04/16 05:41:06;;;;;;;513.70;292.48;;;9.30;99.90;;;;;;4974105;28;20026;-76
2022/04/16 05:43:32;;;;;;;305.95;163.95;;;9.20;99.90;;;;;;4973975;28;20154;-76
2022/04/16 05:45:57;;;;;;;202.13;91.88;;;9.30;99.90;;;;;;4973755;28;20082;-75
2022/04/16 05:48:23;;;;;;;71.15;33.00;;;9.30;99.90;;;;;;4973622;28;20054;-76
2022/04/16 05:50:49;;;;;;;29.48;14.50;;;9.30;99.90;;;;;;4973740;28;20117;-76
2022/04/16 05:53:15;;;;;;;27.75;13.50;;;9.30;99.90;;;;;;4973254;28;20106;-75
2022/04/16 05:55:46;;;;;;;10.40;5.85;;;9.40;99.90;;;;;;4956248;28;20043;-76
2022/04/16 05:58:12;;;;;;;84.53;41.28;;;9.40;99.90;;;;;;4972896;28;20023;-76
2022/04/16 06:00:39;;;;;;;224.95;80.90;;;9.50;99.90;;;;;;4972724;28;20457;-77
2022/04/16 06:03:05;;;;;;;60.70;28.05;;;9.60;99.90;;;;;;4972754;28;20019;-77
2022/04/16 06:05:31;;;;;;;52.55;25.17;;;10.30;99.90;;;;;;4954951;28;20105;-76
2022/04/16 06:07:58;;;;;;;34.30;17.73;;;10.50;99.90;;;;;;4972472;28;20081;-76
2022/04/16 06:10:24;;;;;;;37.65;18.33;;;10.50;98.00;;;;;;4972235;28;20030;-76
2022/04/16 06:12:49;;;;;;;15.35;6.63;;;10.60;95.50;;;;;;4973458;28;20034;-76
2022/04/16 06:15:15;;;;;;;4.30;3.03;;;10.80;92.90;;;;;;4956784;28;20535;-77
2022/04/16 06:17:41;;;;;;;2.08;1.88;;;10.80;92.60;;;;;;4973008;28;20089;-76
2022/04/16 06:20:10;;;;;;;50.22;23.52;;;10.90;91.30;;;;;;4974634;28;20034;-76
2022/04/16 06:22:37;;;;;;;10.80;5.18;;;10.90;92.00;;;;;;4977639;28;20029;-76
2022/04/16 06:25:03;;;;;;;120.22;50.08;;;11.00;91.60;;;;;;4959594;28;20031;-76
2022/04/16 06:27:29;;;;;;;24.55;11.60;;;11.00;92.00;;;;;;4976750;28;20019;-78
2022/04/16 06:29:54;;;;;;;22.65;10.73;;;11.10;92.00;;;;;;4977672;28;20162;-77
2022/04/16 06:32:20;;;;;;;14.75;7.82;;;11.30;91.70;;;;;;4959502;28;20026;-76
2022/04/16 06:34:46;;;;;;;8.02;4.20;;;11.30;91.10;;;;;;4976593;28;20031;-77
2022/04/16 06:37:11;;;;;;;3.88;2.60;;;11.40;91.10;;;;;;4976773;28;20082;-76
2022/04/16 06:39:37;;;;;;;77.93;43.25;;;11.50;93.00;;;;;;4976769;28;20027;-76
2022/04/16 06:42:03;;;;;;;46.10;17.60;;;11.60;99.90;;;;;;4976167;28;20462;-77
2022/04/16 06:44:31;;;;;;;15.27;7.80;;;11.60;99.90;;;;;;4975999;28;20470;-80
2022/04/16 06:46:57;;;;;;;2.92;1.65;;;11.60;85.10;;;;;;4975461;28;20037;-76
2022/04/16 06:49:25;;;;;;;3.42;2.50;;;11.70;84.40;;;;;;4975401;28;20019;-78
2022/04/16 06:51:51;;;;;;;1.00;1.00;;;11.80;85.40;;;;;;4975784;28;20027;-76
2022/04/16 06:54:17;;;;;;;1.42;1.20;;;11.90;84.00;;;;;;4975497;28;20054;-79
2022/04/16 06:56:42;;;;;;;1.63;1.20;;;12.20;90.00;;;;;;4975731;28;20070;-77
2022/04/16 06:59:08;;;;;;;3.55;1.88;;;12.30;83.60;;;;;;4975698;28;20035;-76
2022/04/16 07:01:34;;;;;;;9.60;3.92;;;12.30;83.40;;;;;;4975248;28;20106;-77
2022/04/16 07:03:59;;;;;;;4.53;2.20;;;12.50;90.80;;;;;;4975110;28;20050;-77
2022/04/16 07:06:25;;;;;;;5.93;3.45;;;12.40;89.40;;;;;;4974776;28;20034;-77
2022/04/16 07:08:51;;;;;;;6.00;2.22;;;12.50;91.00;;;;;;4975182;28;20031;-77
2022/04/16 07:11:16;;;;;;;2.08;1.88;;;12.60;89.50;;;;;;4957811;28;20022;-78
2022/04/16 07:13:42;;;;;;;1.20;1.08;;;12.60;85.50;;;;;;4974530;28;20050;-78
2022/04/16 07:16:07;;;;;;;3.67;2.45;;;12.80;86.50;;;;;;4974091;28;20050;-78
2022/04/16 07:18:33;;;;;;;2.58;1.08;;;12.80;88.50;;;;;;4974858;28;20026;-77
2022/04/16 07:20:59;;;;;;;7.25;4.70;;;12.80;86.80;;;;;;4974795;28;20027;-76
2022/04/16 07:23:24;;;;;;;0.52;0.50;;;12.90;91.10;;;;;;4957513;28;20086;-76
2022/04/16 07:25:50;;;;;;;2.15;1.35;;;12.80;88.50;;;;;;4974916;28;20026;-76
2022/04/16 07:28:21;;;;;;;0.95;0.77;;;12.70;90.10;;;;;;4957514;28;20034;-75
2022/04/16 07:30:48;;;;;;;1.20;0.80;;;12.60;89.40;;;;;;4974774;28;20023;-75
2022/04/16 07:33:14;;;;;;;3.85;1.90;;;12.70;91.00;;;;;;4974835;28;20067;-75
2022/04/16 07:35:40;;;;;;;4.57;2.63;;;12.80;90.00;;;;;;4963986;28;20521;-75
2022/04/16 07:38:06;;;;;;;17.55;7.70;;;12.90;89.60;;;;;;4954912;29;20035;-78
2022/04/16 07:40:31;;;;;;;2.88;1.85;;;13.00;91.00;;;;;;4954560;29;20031;-76
2022/04/16 07:42:58;;;;;;;1.27;1.17;;;13.00;89.00;;;;;;4955128;29;20464;-77
2022/04/16 07:45:24;;;;;;;2.78;1.52;;;13.00;90.30;;;;;;4954843;28;20026;-74
2022/04/16 07:47:49;;;;;;;1.20;1.08;;;13.00;90.00;;;;;;4955079;29;20035;-75
2022/04/16 07:50:18;;;;;;;1.95;1.20;;;13.00;90.40;;;;;;4955107;29;20348;-76
2022/04/16 07:52:45;;;;;;;1.13;0.82;;;12.90;90.60;;;;;;4955069;29;20042;-76
2022/04/16 07:55:11;;;;;;;0.85;0.70;;;13.00;91.40;;;;;;4954205;29;20035;-77
2022/04/16 07:57:37;;;;;;;1.23;0.90;;;13.20;91.60;;;;;;4954906;28;20024;-77
2022/04/16 08:00:07;;;;;;;0.95;0.60;;;13.20;91.80;;;;;;4954880;29;20034;-77
2022/04/16 08:02:33;;;;;;;0.43;0.43;;;13.20;90.50;;;;;;4954573;29;20444;-76
2022/04/16 08:04:58;;;;;;;0.57;0.40;;;13.20;90.30;;;;;;4954488;29;20096;-75
2022/04/16 08:07:24;;;;;;;2.83;0.30;;;13.10;90.30;;;;;;4954366;28;20027;-75
2022/04/16 08:09:50;;;;;;;0.30;0.30;;;13.20;93.40;;;;;;4954400;29;20026;-75
2022/04/16 08:12:17;;;;;;;0.25;0.25;;;13.00;94.40;;;;;;4954762;29;20027;-76
2022/04/16 08:14:43;;;;;;;0.32;0.32;;;12.90;94.80;;;;;;4954679;29;20126;-76
2022/04/16 08:17:08;;;;;;;0.22;0.20;;;12.70;96.30;;;;;;4954688;28;20102;-76
2022/04/16 08:19:34;;;;;;;2.17;0.17;;;12.70;95.70;;;;;;4954773;29;20020;-76
2022/04/16 08:22:00;;;;;;;0.68;0.50;;;12.80;95.00;;;;;;4954337;29;20035;-75
2022/04/16 08:26:57;;;;;;;0.10;0.10;;;13.20;94.40;;;;;;4954265;28;20155;-76
2022/04/16 08:29:23;;;;;;;0.22;0.22;;;13.40;95.70;;;;;;4954281;29;20109;-77
2022/04/16 08:31:49;;;;;;;0.38;0.20;;;13.50;96.30;;;;;;4954179;29;20015;-75
2022/04/16 08:34:17;;;;;;;1.85;0.20;;;13.90;99.90;;;;;;4954234;29;20569;-77
2022/04/16 08:36:43;;;;;;;0.30;0.30;;;13.90;98.90;;;;;;4936847;29;20082;-76
2022/04/16 08:39:09;;;;;;;0.10;0.10;;;14.00;91.90;;;;;;4954311;29;20032;-75
2022/04/16 08:41:35;;;;;;;0.20;0.20;;;14.10;90.60;;;;;;4937506;29;20062;-87
2022/04/16 08:44:01;;;;;;;0.10;0.10;;;14.10;90.80;;;;;;4937182;29;20773;-75
2022/04/16 08:46:30;;;;;;;0.40;0.40;;;14.00;90.90;;;;;;4954073;28;20090;-75
2022/04/16 08:48:57;;;;;;;0.77;0.77;;;13.90;90.20;;;;;;4954072;29;20031;-75
2022/04/16 08:51:25;;;;;;;1.58;1.30;;;13.70;90.10;;;;;;4953959;29;20019;-76
2022/04/16 08:53:51;;;;;;;3.22;1.52;;;13.50;93.20;;;;;;4936661;29;20039;-76
2022/04/16 08:56:17;;;;;;;3.13;1.63;;;13.20;77.20;;;;;;4954398;28;20101;-75
2022/04/16 08:58:43;;;;;;;0.88;0.60;;;13.00;80.20;;;;;;4954986;29;20083;-75
2022/04/16 09:01:09;;;;;;;1.38;0.50;;;12.60;78.30;;;;;;4939549;29;20031;-78
2022/04/16 09:03:37;;;;;;;43.60;20.45;;;12.50;80.50;;;;;;4956072;29;20019;-78
2022/04/16 09:06:04;;;;;;;0.93;0.80;;;12.40;79.60;;;;;;4958557;28;20030;-78
2022/04/16 09:08:33;;;;;;;0.47;0.40;;;12.20;81.40;;;;;;4958765;29;20029;-78
2022/04/16 09:11:11;;;;;;;1.35;0.25;;;12.10;83.20;;;;;;4941346;29;20091;-78
2022/04/16 09:13:41;;;;;;;0.98;0.82;;;11.70;81.90;;;;;;4960077;29;20043;-78
2022/04/16 09:16:07;;;;;;;0.22;0.20;;;11.70;83.10;;;;;;4947317;29;20036;-78
2022/04/16 09:18:54;;;;;;;0.20;0.20;;;11.80;83.20;;;;;;4965945;28;20022;-77
2022/04/16 09:21:28;;;;;;;0.30;0.30;;;11.80;82.80;;;;;;4970493;29;20110;-78
2022/04/16 09:23:59;;;;;;;0.28;0.22;;;11.50;83.10;;;;;;4960540;29;20031;-77
2022/04/16 09:26:37;;;;;;;0.28;0.28;;;11.50;83.70;;;;;;4960109;29;20083;-77
2022/04/16 09:29:10;;;;;;;0.40;0.40;;;11.50;85.30;;;;;;4942984;29;20467;-78
2022/04/16 09:31:41;;;;;;;0.40;0.40;;;11.50;84.80;;;;;;4960362;29;20420;-78
2022/04/16 09:34:18;;;;;;;0.50;0.50;;;11.60;85.10;;;;;;4959311;29;20031;-77
2022/04/16 09:36:44;;;;;;;0.35;0.32;;;11.40;84.90;;;;;;4941977;29;20039;-77
2022/04/16 09:39:10;;;;;;;0.40;0.40;;;11.10;84.20;;;;;;4959784;29;20083;-77
2022/04/16 09:41:44;;;;;;;0.40;0.40;;;10.90;86.00;;;;;;4958351;29;20478;-78
2022/04/16 09:44:28;;;;;;;0.30;0.30;;;11.00;86.70;;;;;;4958817;29;20455;-78
2022/04/16 09:46:57;;;;;;;0.73;0.43;;;10.90;86.40;;;;;;4957618;29;20079;-76
2022/04/16 09:49:24;;;;;;;0.55;0.55;;;10.90;87.20;;;;;;4958304;29;20019;-78
2022/04/16 09:51:51;;;;;;;1.48;1.00;;;10.90;86.70;;;;;;4941294;29;20034;-78
2022/04/16 09:54:21;;;;;;;0.82;0.73;;;10.90;87.10;;;;;;4941645;29;20356;-78
2022/04/16 09:56:48;;;;;;;2.28;1.13;;;10.80;87.70;;;;;;4947812;29;20034;-80
2022/04/16 09:59:15;;;;;;;0.77;0.63;;;10.90;88.70;;;;;;4948462;29;20106;-79
2022/04/16 10:01:47;;;;;;;0.60;0.40;;;10.90;86.90;;;;;;4945397;29;20506;-79
2022/04/16 10:04:18;;;;;;;0.95;0.68;;;10.70;87.10;;;;;;4962207;29;20027;-79
2022/04/16 10:06:47;;;;;;;1.83;0.60;;;10.70;88.10;;;;;;4962790;29;20028;-79
2022/04/16 10:09:22;;;;;;;1.90;0.57;;;10.80;88.60;;;;;;4962555;29;20043;-79
2022/04/16 10:14:51;;;;;;;0.45;0.45;;;10.60;88.20;;;;;;4960918;29;20049;-79
2022/04/16 10:17:39;;;;;;;5.03;0.70;;;10.50;88.90;;;;;;4946326;29;20093;-77
2022/04/16 10:20:09;;;;;;;0.60;0.40;;;10.50;88.90;;;;;;4944311;29;20027;-79
2022/04/16 10:22:36;;;;;;;0.63;0.63;;;10.60;88.60;;;;;;4973781;28;20486;-79
2022/04/16 10:25:02;;;;;;;0.52;0.50;;;10.60;87.80;;;;;;4942613;29;20028;-79
2022/04/16 10:27:29;;;;;;;0.47;0.40;;;10.50;88.10;;;;;;4948407;29;20031;-80
2022/04/16 10:30:03;;;;;;;0.60;0.60;;;10.60;88.10;;;;;;5021787;23;20641;-80
2022/04/16 10:32:45;;;;;;;0.50;0.50;;;11.20;90.20;;;;;;4998519;23;20057;-80
2022/04/16 10:35:16;;;;;;;0.52;0.40;;;10.90;90.20;;;;;;4966851;28;20088;-78
2022/04/16 10:37:44;;;;;;;0.50;0.38;;;11.20;88.60;;;;;;4970330;28;20370;-79
2022/04/16 10:43:01;;;;;;;0.55;0.50;;;11.30;87.00;;;;;;5004315;23;20054;-79
2022/04/16 10:47:54;;;;;;;0.60;0.60;;;11.40;86.30;;;;;;4992864;23;20077;-80
2022/04/16 10:53:03;;;;;;;1.23;0.82;;;11.50;85.10;;;;;;4959403;28;20046;-80
2022/04/16 11:00:47;;;;;;;2.08;0.30;;;11.40;83.80;;;;;;4992070;28;20524;-80
2022/04/16 11:05:48;;;;;;;0.30;0.30;;;11.20;85.80;;;;;;5209901;23;20055;-81
2022/04/16 11:08:14;;;;;;;0.55;0.50;;;11.60;86.80;;;;;;4982795;28;20062;-81
2022/04/16 11:13:16;;;;;;;1.65;1.05;;;11.20;84.10;;;;;;5203183;23;20057;-77
2022/04/16 11:15:41;;;;;;;0.70;0.68;;;11.30;87.60;;;;;;4959961;28;20038;-77
2022/04/16 11:18:07;;;;;;;0.25;0.25;;;11.50;85.90;;;;;;4982631;28;20027;-80
2022/04/16 11:20:36;;;;;;;0.40;0.32;;;11.50;85.00;;;;;;4963891;28;20022;-80
2022/04/16 11:23:10;;;;;;;0.43;0.43;;;11.70;85.00;;;;;;4965837;28;20023;-80
2022/04/16 11:34:17;;;;;;;0.55;0.30;;;11.30;81.90;;;;;;4969225;28;20510;-80
2022/04/16 11:36:47;;;;;;;0.45;0.45;;;11.10;82.20;;;;;;4955693;29;20058;-82
2022/04/16 11:39:20;;;;;;;0.40;0.40;;;11.10;82.30;;;;;;4957580;29;20029;-81
2022/04/16 11:42:11;;;;;;;0.30;0.30;;;11.20;83.60;;;;;;4960107;29;20062;-81
2022/04/16 11:44:45;;;;;;;0.43;0.30;;;11.40;83.80;;;;;;4960455;29;20051;-81
2022/04/16 11:47:22;;;;;;;0.90;0.20;;;11.40;82.50;;;;;;4962306;28;20121;-81
2022/04/16 11:50:09;;;;;;;4.20;2.38;;;11.40;82.00;;;;;;4970641;29;20030;-80
2022/04/16 11:52:36;;;;;;;0.20;0.20;;;11.60;87.20;;;;;;4965680;29;20035;-80
2022/04/16 11:55:21;;;;;;;0.20;0.20;;;11.80;80.50;;;;;;4977726;29;20038;-82
2022/04/16 11:57:49;;;;;;;0.43;0.43;;;11.80;79.60;;;;;;4958718;29;20459;-81
2022/04/16 12:00:18;;;;;;;0.32;0.20;;;11.50;79.60;;;;;;4975564;29;20023;-81
2022/04/16 12:02:47;;;;;;;1.05;0.30;;;11.50;79.40;;;;;;4953564;29;20020;-81
2022/04/16 12:05:23;;;;;;;2.45;0.45;;;11.40;78.30;;;;;;4974265;29;20071;-81
2022/04/16 12:12:53;;;;;;;2.75;0.45;;;11.30;78.80;;;;;;5115488;23;20063;-80
2022/04/16 12:15:29;;;;;;;0.73;0.50;;;11.10;78.50;;;;;;4980325;28;20051;-80
2022/04/16 12:17:57;;;;;;;0.30;0.30;;;11.10;78.70;;;;;;4983196;28;20086;-80
2022/04/16 12:20:24;;;;;;;0.30;0.30;;;11.30;78.30;;;;;;4997705;28;20035;-80
2022/04/16 12:22:59;;;;;;;0.40;0.40;;;11.40;83.80;;;;;;4996344;28;20106;-81
2022/04/16 12:25:25;;;;;;;0.40;0.40;;;11.60;80.00;;;;;;4976974;28;20023;-80
2022/04/16 12:30:24;;;;;;;0.38;0.38;;;11.00;77.80;;;;;;5026183;23;20055;-80
2022/04/16 12:33:07;;;;;;;0.30;0.30;;;10.80;79.60;;;;;;4967684;28;20031;-78
2022/04/16 12:35:35;;;;;;;0.40;0.40;;;10.90;81.00;;;;;;4975095;28;20035;-81
2022/04/16 12:38:01;;;;;;;2.70;0.50;;;11.00;81.80;;;;;;4979271;28;20050;-80
2022/04/16 12:40:29;;;;;;;0.52;0.47;;;11.00;81.00;;;;;;4969791;28;20061;-79
2022/04/16 12:42:56;;;;;;;1.98;0.52;;;10.80;81.10;;;;;;4987970;28;20033;-81
2022/04/16 12:45:23;;;;;;;0.45;0.40;;;10.80;81.30;;;;;;4974644;28;20027;-80
2022/04/16 12:47:49;;;;;;;2.33;0.47;;;10.90;82.20;;;;;;4991780;28;20011;-81
2022/04/16 12:50:15;;;;;;;0.30;0.30;;;10.90;80.60;;;;;;4975052;28;20421;-80
2022/04/16 12:52:42;;;;;;;0.40;0.40;;;11.00;80.80;;;;;;5011149;23;20052;-78
2022/04/16 12:55:08;;;;;;;0.40;0.40;;;11.00;81.00;;;;;;4936163;29;20047;-77
2022/04/16 12:57:34;;;;;;;0.63;0.55;;;11.10;81.60;;;;;;4956539;28;20086;-77
2022/04/16 13:00:00;;;;;;;0.43;0.40;;;11.10;80.40;;;;;;4958328;28;20498;-76
2022/04/16 13:02:25;;;;;;;0.80;0.80;;;11.10;80.90;;;;;;4954661;28;20034;-76
2022/04/16 13:04:52;;;;;;;1.27;0.70;;;11.30;82.50;;;;;;4957933;28;20034;-79
2022/04/16 13:09:53;;;;;;;0.60;0.60;;;11.10;82.10;;;;;;4979108;28;20058;-79
2022/04/16 13:12:19;;;;;;;0.90;0.70;;;10.80;83.50;;;;;;4959695;28;20035;-79
2022/04/16 13:15:11;;;;;;;0.68;0.68;;;10.70;84.60;;;;;;4969515;28;20027;-79
2022/04/16 13:17:47;;;;;;;0.68;0.68;;;10.80;84.90;;;;;;4978405;28;20023;-80
2022/04/16 13:20:13;;;;;;;;;;;10.80;84.30;;;;;;4990528;23;20074;-78
2022/04/16 13:25:16;;;;;;;0.90;0.90;;;10.40;82.80;;;;;;5281953;23;20034;-81
2022/04/16 13:30:17;;;;;;;1.08;0.90;;;10.80;81.80;;;;;;5551802;23;20454;-80
2022/04/16 13:32:42;;;;;;;1.10;0.90;;;10.60;81.30;;;;;;4962338;28;20035;-77
2022/04/16 13:35:09;;;;;;;0.70;0.70;;;10.40;81.90;;;;;;4977149;28;20030;-77
2022/04/16 13:37:35;;;;;;;0.98;0.90;;;10.30;83.00;;;;;;4976866;28;20352;-77
2022/04/16 13:42:45;;;;;;;0.85;0.82;;;10.80;92.80;;;;;;4977061;28;20066;-77
2022/04/16 13:45:13;;;;;;;2.10;1.23;;;10.90;83.00;;;;;;4976287;28;20445;-76
2022/04/16 13:47:39;;;;;;;1.08;1.02;;;10.60;80.60;;;;;;4959495;28;20023;-76
2022/04/16 13:50:05;;;;;;;0.80;0.80;;;10.60;87.90;;;;;;4976856;28;20381;-75
2022/04/16 13:52:31;;;;;;;9.20;6.93;;;10.40;86.70;;;;;;4977136;28;20027;-76
2022/04/16 13:54:57;;;;;;;1.40;1.30;;;10.00;80.90;;;;;;4976665;28;20101;-77
2022/04/16 13:57:23;;;;;;;1.45;1.35;;;10.00;82.40;;;;;;4978052;28;20031;-77